Time;durP1;ratioP1;P1;durP2;ratioP2;P2;SDS_P1;SDS_P2;PMS_P1;PMS_P2;Temp;Humidity;BMP_temperature;BMP_pressure;BME280_temperature;BME280_humidity;BME280_pressure;Samples;Min_cycle;Max_cycle;Signal;HPM_P1;HPM_P2
2023/09/30 00:00:23;;;;;;;9.23;3.10;;;;;;;15.94;96.72;100069.28;5017849;28;20798;-61
2023/09/30 00:02:53;;;;;;;8.83;2.70;;;;;;;16.10;95.60;100066.00;5027933;28;20290;-59
2023/09/30 00:05:24;;;;;;;7.93;2.90;;;;;;;16.30;94.43;100063.38;5019003;28;20344;-60
2023/09/30 00:07:54;;;;;;;10.13;2.60;;;;;;;16.54;92.40;100065.88;5027877;28;20284;-59
2023/09/30 00:10:26;;;;;;;7.63;2.47;;;;;;;16.74;88.47;100063.19;5018664;28;20284;-60
2023/09/30 00:12:57;;;;;;;13.87;3.73;;;;;;;16.94;86.66;100061.47;5028234;28;20413;-61
2023/09/30 00:15:27;;;;;;;10.50;2.60;;;;;;;17.05;84.66;100061.84;5017510;28;20276;-61
2023/09/30 00:17:58;;;;;;;6.33;2.47;;;;;;;17.18;81.64;100057.69;5030761;28;20310;-61
2023/09/30 00:20:28;;;;;;;15.13;2.50;;;;;;;17.34;80.30;100051.69;5022234;28;20275;-59
2023/09/30 00:22:59;;;;;;;9.83;2.80;;;;;;;17.41;79.48;100053.94;5031654;28;20294;-61
2023/09/30 00:25:31;;;;;;;10.07;2.33;;;;;;;17.50;79.19;100052.66;5021909;28;20942;-60
2023/09/30 00:28:01;;;;;;;11.83;3.37;;;;;;;17.59;78.08;100060.13;5031581;28;20301;-61
2023/09/30 00:30:32;;;;;;;7.70;2.83;;;;;;;17.71;77.59;100060.47;4999197;28;20379;-58
2023/09/30 00:33:02;;;;;;;8.73;2.43;;;;;;;17.86;77.16;100059.75;5001560;28;20287;-62
2023/09/30 00:35:35;;;;;;;10.23;2.23;;;;;;;17.84;75.32;100024.59;5003764;28;20295;-62
2023/09/30 00:38:05;;;;;;;5.83;2.00;;;;;;;18.10;74.25;100050.59;5012383;28;20283;-61
2023/09/30 00:40:38;;;;;;;3.47;1.70;;;;;;;18.23;74.57;100042.03;5013148;28;20329;-62
2023/09/30 00:43:09;;;;;;;8.17;1.97;;;;;;;18.31;71.22;100047.78;5008918;28;20314;-61
2023/09/30 00:45:45;;;;;;;2.90;1.17;;;;;;;18.32;70.69;100053.00;5012121;28;20371;-61
2023/09/30 00:48:16;;;;;;;5.40;1.50;;;;;;;18.37;70.89;100043.94;5002190;28;20272;-61
2023/09/30 00:50:47;;;;;;;10.40;1.60;;;;;;;17.74;71.53;99928.19;5012004;28;20287;-60
2023/09/30 00:53:18;;;;;;;3.43;1.77;;;;;;;18.53;71.00;100034.28;5001955;28;20446;-60
2023/09/30 00:55:50;;;;;;;4.33;1.60;;;;;;;18.62;70.37;100027.63;5011460;28;20288;-60
2023/09/30 00:58:20;;;;;;;3.97;1.43;;;;;;;18.68;71.18;100017.56;5001997;28;21030;-60
2023/09/30 01:00:51;;;;;;;2.63;1.00;;;;;;;18.72;70.32;100020.91;5011450;28;20287;-62
2023/09/30 01:03:22;;;;;;;6.67;1.33;;;;;;;18.81;70.01;100019.59;5001142;28;21098;-63
2023/09/30 01:05:54;;;;;;;6.13;1.40;;;;;;;18.93;68.90;100011.84;5011040;28;20284;-60
2023/09/30 01:08:25;;;;;;;6.50;1.70;;;;;;;19.00;70.04;100012.34;5001701;28;20398;-63
2023/09/30 01:10:58;;;;;;;6.07;1.70;;;;;;;19.11;68.60;100009.09;5011308;28;20287;-61
2023/09/30 01:13:35;;;;;;;6.07;1.70;;;;;;;19.11;67.17;100003.81;5000850;28;20414;-61
2023/09/30 01:16:06;;;;;;;5.60;1.70;;;;;;;19.12;67.20;100002.84;5011360;28;20877;-63
2023/09/30 01:18:38;;;;;;;6.37;1.60;;;;;;;19.16;68.14;99994.66;5001435;28;20371;-62
2023/09/30 01:21:09;;;;;;;7.90;1.80;;;;;;;19.43;69.36;100009.09;5008329;28;20287;-61
2023/09/30 01:23:41;;;;;;;5.80;1.73;;;;;;;19.49;67.59;100004.28;5010000;28;20353;-62
2023/09/30 01:26:14;;;;;;;3.80;1.23;;;;;;;19.43;66.77;99987.91;5000425;28;20291;-61
2023/09/30 01:28:45;;;;;;;5.60;1.40;;;;;;;19.48;66.69;99991.13;5009359;28;20310;-60
2023/09/30 01:31:16;;;;;;;3.77;1.53;;;;;;;19.24;67.14;99996.88;5000012;28;20280;-61
2023/09/30 01:33:47;;;;;;;5.20;1.50;;;;;;;18.86;67.08;99994.56;5010462;28;21024;-62
2023/09/30 01:36:18;;;;;;;4.80;1.33;;;;;;;18.52;68.79;99990.22;5000672;28;20307;-61
2023/09/30 01:38:51;;;;;;;6.60;1.73;;;;;;;18.30;70.01;100001.09;5011811;28;20279;-62
2023/09/30 01:41:21;;;;;;;7.30;1.43;;;;;;;18.38;70.34;99995.41;5000953;28;20285;-61
2023/09/30 01:43:52;;;;;;;7.57;1.57;;;;;;;18.78;70.76;99996.78;5012010;28;20292;-60
2023/09/30 01:46:24;;;;;;;3.97;1.43;;;;;;;19.27;70.86;99991.44;4999298;28;20272;-60
2023/09/30 01:48:55;;;;;;;3.60;1.30;;;;;;;19.62;69.21;99988.53;5011212;28;20279;-59
2023/09/30 01:51:25;;;;;;;4.33;1.10;;;;;;;19.49;67.83;99982.22;5000197;28;20367;-62
2023/09/30 01:53:57;;;;;;;5.57;1.30;;;;;;;19.34;66.30;99982.16;5010706;28;20342;-61
2023/09/30 01:56:28;;;;;;;7.20;1.53;;;;;;;19.36;67.84;99977.63;5000803;28;20471;-63
2023/09/30 01:58:59;;;;;;;6.37;1.30;;;;;;;18.98;67.78;99934.81;5011107;28;20292;-62
2023/09/30 02:01:29;;;;;;;3.37;1.30;;;;;;;18.93;67.87;99974.75;5000492;28;20375;-62
2023/09/30 02:03:59;;;;;;;6.30;1.60;;;;;;;18.87;68.99;99977.78;5010220;28;20292;-60
2023/09/30 02:06:30;;;;;;;3.53;1.33;;;;;;;18.98;69.33;99971.03;5000287;28;20272;-60
2023/09/30 02:09:07;;;;;;;7.00;1.53;;;;;;;19.29;68.63;99976.28;5010150;28;20973;-58
2023/09/30 02:11:40;;;;;;;2.60;1.23;;;;;;;19.71;68.28;99972.13;5000358;28;20379;-60
2023/09/30 02:14:12;;;;;;;3.03;1.10;;;;;;;19.64;69.29;99901.81;5000909;28;20284;-63
2023/09/30 02:16:43;;;;;;;4.43;1.50;;;;;;;20.32;66.60;99961.41;5010237;28;20284;-63
2023/09/30 02:19:13;;;;;;;8.57;2.00;;;;;;;20.56;65.31;99965.22;4999434;28;20315;-61
2023/09/30 02:21:44;;;;;;;6.87;1.13;;;;;;;20.23;63.99;99884.09;5009843;28;20867;-61
2023/09/30 02:24:16;;;;;;;1.93;1.30;;;;;;;20.34;64.73;99954.22;4998334;28;20323;-63
2023/09/30 02:26:47;;;;;;;4.40;1.27;;;;;;;19.92;65.33;99953.22;5010505;28;20350;-60
2023/09/30 02:29:18;;;;;;;4.73;1.70;;;;;;;19.67;65.38;99944.09;4997232;28;20303;-62
2023/09/30 02:31:48;;;;;;;3.33;1.63;;;;;;;19.63;67.25;99945.19;5008910;28;20386;-60
2023/09/30 02:34:18;;;;;;;2.00;1.30;;;;;;;19.82;66.47;99937.88;4999517;28;20276;-63
2023/09/30 02:36:49;;;;;;;1.93;1.10;;;;;;;20.20;67.12;99936.50;5009076;28;20298;-60
2023/09/30 02:39:24;;;;;;;4.17;1.00;;;;;;;20.50;64.80;99931.09;4999762;28;20288;-62
2023/09/30 02:41:54;;;;;;;3.07;1.43;;;;;;;20.55;64.48;99926.38;5009598;28;20292;-60
2023/09/30 02:44:25;;;;;;;4.97;1.90;;;;;;;20.70;64.96;99934.31;5000117;28;20336;-57
2023/09/30 02:46:54;;;;;;;4.80;1.60;;;;;;;20.75;65.33;99929.56;5008366;28;20349;-63
2023/09/30 02:49:23;;;;;;;;;;;;;;;20.67;63.27;99930.91;4999990;28;20314;-61
2023/09/30 02:51:54;;;;;;;3.70;1.37;;;;;;;20.42;63.99;99925.41;5009688;28;19929;-59
2023/09/30 02:54:27;;;;;;;5.50;1.60;;;;;;;20.29;65.00;99929.75;5000041;28;20758;-60
2023/09/30 02:56:57;;;;;;;8.07;1.50;;;;;;;20.03;65.27;99921.63;5007620;28;20292;-59
2023/09/30 02:59:28;;;;;;;4.03;1.17;;;;;;;19.72;66.46;99920.81;4999826;28;20325;-62
2023/09/30 03:01:58;;;;;;;3.53;1.13;;;;;;;19.48;66.85;99922.25;5006547;28;20745;-62
2023/09/30 03:04:28;;;;;;;4.50;1.30;;;;;;;19.33;66.99;99919.53;4996541;28;20315;-63
2023/09/30 03:06:59;;;;;;;3.20;1.50;;;;;;;19.26;68.35;99918.19;5009320;28;21029;-59
2023/09/30 03:09:31;;;;;;;2.43;1.30;;;;;;;19.21;68.40;99914.09;4998480;28;20290;-59
2023/09/30 03:12:02;;;;;;;7.33;1.67;;;;;;;19.15;68.07;99920.59;5008437;28;20758;-61
2023/09/30 03:14:34;;;;;;;3.70;1.13;;;;;;;19.42;68.84;99917.28;4999202;28;20322;-61
2023/09/30 03:17:04;;;;;;;3.83;1.40;;;;;;;19.76;67.98;99909.06;5008899;28;21121;-59
2023/09/30 03:19:35;;;;;;;4.23;1.47;;;;;;;20.03;67.69;99898.59;5017543;28;20298;-61
2023/09/30 03:22:11;;;;;;;2.90;1.70;;;;;;;20.43;65.82;99895.25;5027601;28;20660;-59
2023/09/30 03:24:43;;;;;;;3.43;1.63;;;;;;;20.66;63.70;99902.63;5018269;28;20957;-61
2023/09/30 03:27:14;;;;;;;7.83;3.77;;;;;;;20.54;61.79;99903.38;5017534;28;20904;-61
2023/09/30 03:29:44;;;;;;;10.67;5.60;;;;;;;20.21;62.83;99907.22;5028666;28;20452;-61
2023/09/30 03:32:15;;;;;;;5.70;2.50;;;;;;;19.93;63.44;99909.88;5017674;28;20922;-62
2023/09/30 03:34:46;;;;;;;8.37;3.70;;;;;;;19.69;64.56;99899.78;5027889;28;20291;-63
2023/09/30 03:37:16;;;;;;;4.00;2.00;;;;;;;19.70;64.71;99901.50;5017975;28;20294;-63
2023/09/30 03:39:49;;;;;;;5.77;1.50;;;;;;;19.79;65.16;99894.78;5028569;28;20283;-61
2023/09/30 03:42:19;;;;;;;3.57;1.63;;;;;;;19.99;65.81;99896.22;5018586;28;20420;-61
2023/09/30 03:44:50;;;;;;;2.83;1.20;;;;;;;19.88;64.84;99888.06;5028933;28;20345;-61
2023/09/30 03:47:21;;;;;;;4.33;1.50;;;;;;;19.70;64.75;99901.50;5018650;28;20315;-59
2023/09/30 03:49:51;;;;;;;4.70;1.73;;;;;;;19.50;66.00;99893.84;5028113;28;20279;-61
2023/09/30 03:52:25;;;;;;;2.50;1.10;;;;;;;19.37;66.33;99899.88;5020360;28;20293;-62
2023/09/30 03:54:58;;;;;;;2.27;1.33;;;;;;;19.20;66.50;99897.34;5032578;28;20271;-61
2023/09/30 03:57:29;;;;;;;5.17;1.10;;;;;;;19.10;67.92;99896.19;5022477;28;20314;-63
2023/09/30 03:59:59;;;;;;;7.33;1.90;;;;;;;19.01;68.15;99896.69;5031745;28;20406;-61
2023/09/30 04:02:30;;;;;;;3.33;1.30;;;;;;;18.94;68.23;99891.75;5021915;28;20409;-62
2023/09/30 04:05:05;;;;;;;2.97;1.43;;;;;;;18.84;69.11;99884.41;5032724;28;20429;-60
2023/09/30 04:07:36;;;;;;;5.47;1.40;;;;;;;18.76;69.15;99887.50;5010304;28;20820;-63
2023/09/30 04:10:09;;;;;;;2.63;1.20;;;;;;;18.67;70.78;99882.69;5028852;28;20743;-61
2023/09/30 04:12:39;;;;;;;1.90;1.03;;;;;;;18.66;71.65;99888.94;5031584;28;20287;-59
2023/09/30 04:15:12;;;;;;;3.30;1.43;;;;;;;18.60;72.32;99887.47;5021363;28;20298;-59
2023/09/30 04:17:42;;;;;;;2.53;1.30;;;;;;;18.60;73.35;99881.34;5032634;28;20747;-64
2023/09/30 04:20:22;;;;;;;2.97;1.40;;;;;;;18.72;74.00;99880.63;5021448;28;20607;-62
2023/09/30 04:22:57;;;;;;;5.67;1.87;;;;;;;18.97;73.82;99885.44;5030642;28;20275;-63
2023/09/30 04:25:30;;;;;;;5.17;1.60;;;;;;;19.16;74.08;99886.06;5021651;28;20280;-62
2023/09/30 04:28:02;;;;;;;1.83;1.17;;;;;;;19.14;73.23;99880.00;5031969;28;20284;-62
2023/09/30 04:30:33;;;;;;;4.03;2.60;;;;;;;19.05;72.91;99887.66;5020833;28;20297;-60
2023/09/30 04:33:05;;;;;;;4.80;1.70;;;;;;;18.98;73.17;99878.34;5031212;28;20276;-61
2023/09/30 04:35:36;;;;;;;4.60;1.70;;;;;;;18.90;73.97;99887.59;5022023;28;20283;-61
2023/09/30 04:38:06;;;;;;;5.30;2.10;;;;;;;18.83;74.40;99883.56;5030140;28;21073;-60
2023/09/30 04:40:38;;;;;;;6.53;2.27;;;;;;;18.90;75.54;99884.94;5013843;28;20291;-62
2023/09/30 04:43:08;;;;;;;4.63;1.43;;;;;;;19.04;76.25;99875.34;5008326;28;20778;-62
2023/09/30 04:45:39;;;;;;;3.40;1.43;;;;;;;19.09;76.81;99875.94;5012400;28;21587;-61
2023/09/30 04:48:10;;;;;;;3.60;1.50;;;;;;;19.06;75.99;99878.75;5002204;28;20357;-59
2023/09/30 04:50:41;;;;;;;4.67;1.60;;;;;;;18.99;75.09;99877.41;5012848;28;20338;-59
2023/09/30 04:53:12;;;;;;;5.70;1.77;;;;;;;18.86;74.34;99883.38;5002346;28;20287;-61
2023/09/30 04:55:44;;;;;;;2.83;1.60;;;;;;;18.78;73.10;99875.03;5012012;28;20284;-60
2023/09/30 04:58:15;;;;;;;7.07;1.70;;;;;;;18.79;74.61;99876.72;5002236;28;20290;-63
2023/09/30 05:00:46;;;;;;;5.67;1.30;;;;;;;19.03;74.06;99879.78;5011789;28;20357;-62
2023/09/30 05:03:16;;;;;;;4.40;1.40;;;;;;;19.34;72.92;99873.53;5001676;28;20276;-62
2023/09/30 05:05:47;;;;;;;3.43;1.40;;;;;;;19.60;72.35;99863.22;5012131;28;20802;-61
2023/09/30 05:08:17;;;;;;;2.63;1.50;;;;;;;19.77;71.57;99863.06;5000629;28;20307;-60
2023/09/30 05:10:49;;;;;;;2.80;1.40;;;;;;;19.63;70.98;99862.19;5011092;28;20284;-62
2023/09/30 05:13:21;;;;;;;4.00;1.70;;;;;;;19.44;71.29;99867.72;5000566;28;20287;-61
2023/09/30 05:15:52;;;;;;;3.43;1.70;;;;;;;19.46;71.57;99866.66;5011355;28;20284;-60
2023/09/30 05:18:23;;;;;;;5.23;1.63;;;;;;;19.40;72.00;99861.75;5001631;28;20279;-59
2023/09/30 05:20:54;;;;;;;4.10;1.67;;;;;;;19.26;72.90;99864.34;5011091;28;20693;-57
2023/09/30 05:23:25;;;;;;;6.63;1.77;;;;;;;19.17;73.60;99876.34;5001367;28;20289;-59
2023/09/30 05:25:57;;;;;;;4.10;1.97;;;;;;;19.10;74.20;99872.34;5010987;28;20292;-60
2023/09/30 05:28:28;;;;;;;3.30;1.83;;;;;;;19.02;74.45;99874.56;5001472;28;21015;-60
2023/09/30 05:30:59;;;;;;;4.87;1.70;;;;;;;19.20;74.87;99873.53;5011533;28;20276;-60
2023/09/30 05:33:32;;;;;;;5.67;1.77;;;;;;;19.47;74.05;99872.81;5000166;28;20303;-59
2023/09/30 05:36:03;;;;;;;5.20;1.73;;;;;;;19.70;73.37;99880.28;5021359;28;20298;-62
2023/09/30 05:38:34;;;;;;;4.90;1.60;;;;;;;19.67;72.34;99867.25;5018562;28;20302;-58
2023/09/30 05:41:06;;;;;;;12.03;1.77;;;;;;;19.47;72.17;99875.47;5029632;28;20358;-61
2023/09/30 05:43:37;;;;;;;3.00;1.37;;;;;;;19.25;71.97;99873.25;5017251;28;20305;-61
2023/09/30 05:46:08;;;;;;;4.07;1.70;;;;;;;19.09;72.92;99878.56;5022262;28;20279;-61
2023/09/30 05:48:40;;;;;;;5.13;3.00;;;;;;;19.11;73.08;99876.69;5029634;28;20402;-61
2023/09/30 05:51:14;;;;;;;6.30;4.37;;;;;;;19.12;72.81;99873.09;5019167;28;20282;-63
2023/09/30 05:53:47;;;;;;;7.20;2.43;;;;;;;19.15;73.47;99878.22;5030495;28;20294;-60
2023/09/30 05:56:19;;;;;;;6.97;2.47;;;;;;;19.33;72.74;99871.84;5017856;28;20848;-58
2023/09/30 05:58:49;;;;;;;3.10;2.07;;;;;;;19.46;71.91;99877.28;5027043;28;20284;-59
2023/09/30 06:01:20;;;;;;;3.90;1.97;;;;;;;19.45;71.59;99875.59;5019344;28;20278;-61
2023/09/30 06:03:50;;;;;;;8.87;2.10;;;;;;;19.35;71.88;99880.56;5029354;28;20280;-59
2023/09/30 06:06:22;;;;;;;7.13;1.70;;;;;;;19.14;72.71;99876.50;5019632;28;20291;-60
2023/09/30 06:08:53;;;;;;;6.30;2.17;;;;;;;19.01;73.04;99880.81;5029248;28;20279;-61
2023/09/30 06:11:28;;;;;;;6.90;1.90;;;;;;;18.91;72.57;99886.63;5018951;28;20299;-61
2023/09/30 06:14:00;;;;;;;4.00;1.90;;;;;;;18.90;72.72;99895.53;5029166;28;20293;-59
2023/09/30 06:16:31;;;;;;;6.93;2.13;;;;;;;18.89;73.42;99888.50;5018458;28;20694;-63
2023/09/30 06:19:02;;;;;;;4.53;2.20;;;;;;;18.90;73.48;99892.03;5029156;28;20421;-62
2023/09/30 06:21:34;;;;;;;5.30;1.70;;;;;;;18.94;74.32;99894.38;5018799;28;20380;-63
2023/09/30 06:24:05;;;;;;;4.30;2.10;;;;;;;18.91;74.63;99883.97;5029123;28;20295;-60
2023/09/30 06:26:37;;;;;;;5.83;1.97;;;;;;;18.86;74.27;99886.03;5019449;28;20677;-62
2023/09/30 06:29:08;;;;;;;7.03;2.23;;;;;;;18.93;73.63;99890.03;5021280;28;20367;-61
2023/09/30 06:31:38;;;;;;;6.00;2.03;;;;;;;19.05;73.47;99888.50;5028921;28;20286;-60
2023/09/30 06:34:11;;;;;;;3.50;1.77;;;;;;;19.11;72.82;99887.28;5018873;28;21049;-62
2023/09/30 06:36:41;;;;;;;4.63;1.80;;;;;;;19.16;72.28;99886.06;5029070;28;20287;-61
2023/09/30 06:39:12;;;;;;;2.80;1.70;;;;;;;19.16;71.85;99877.28;5018961;28;20800;-59
2023/09/30 06:41:44;;;;;;;7.37;1.63;;;;;;;19.22;71.06;99892.84;5029822;28;20297;-60
2023/09/30 06:44:15;;;;;;;9.17;2.33;;;;;;;19.21;70.99;99896.41;5019137;28;20827;-62
2023/09/30 06:46:46;;;;;;;5.90;2.00;;;;;;;19.21;71.48;99891.09;5028672;28;20288;-63
2023/09/30 06:49:19;;;;;;;7.93;2.07;;;;;;;19.12;71.02;99883.69;5016541;28;21201;-60
2023/09/30 06:51:50;;;;;;;4.93;1.80;;;;;;;19.16;69.12;99895.81;5028646;28;20319;-61
2023/09/30 06:54:20;;;;;;;4.23;1.73;;;;;;;19.10;68.69;99896.19;5018222;28;20275;-63
2023/09/30 06:56:54;;;;;;;5.20;2.03;;;;;;;19.06;68.74;99905.25;5028316;28;20287;-63
2023/09/30 06:59:24;;;;;;;6.37;1.70;;;;;;;18.99;68.49;99898.59;5018242;28;21674;-60
2023/09/30 07:01:55;;;;;;;4.27;1.70;;;;;;;18.94;69.21;99907.63;5028985;28;20394;-59
2023/09/30 07:04:26;;;;;;;7.47;2.20;;;;;;;18.87;67.97;99906.28;5017908;28;25880;-61
2023/09/30 07:06:57;;;;;;;4.50;1.63;;;;;;;18.81;67.07;99911.06;5028284;28;20291;-63
2023/09/30 07:09:27;;;;;;;8.07;2.10;;;;;;;18.72;67.02;99909.75;5017873;28;20275;-61
2023/09/30 07:11:59;;;;;;;4.00;1.70;;;;;;;18.63;67.36;99910.28;5028206;28;20284;-63
2023/09/30 07:14:30;;;;;;;12.30;2.30;;;;;;;18.57;67.62;99913.25;5018342;28;20776;-62
2023/09/30 07:17:00;;;;;;;4.87;1.90;;;;;;;18.45;68.91;99915.63;5028294;28;20972;-62
2023/09/30 07:19:30;;;;;;;6.20;2.10;;;;;;;18.36;69.78;99916.13;5018114;28;20284;-62
2023/09/30 07:22:02;;;;;;;4.53;1.70;;;;;;;18.27;70.32;99924.53;5028604;28;20286;-61
2023/09/30 07:24:34;;;;;;;6.50;1.93;;;;;;;18.17;70.82;99926.84;5017936;28;20756;-62
2023/09/30 07:27:06;;;;;;;9.20;2.00;;;;;;;18.08;71.21;99922.88;5029141;28;20291;-63
2023/09/30 07:29:58;;;;;;;5.57;2.27;;;;;;;17.97;70.84;99930.56;5032220;28;20377;-61
2023/09/30 07:32:28;;;;;;;5.60;1.90;;;;;;;17.88;71.25;99928.38;5022240;28;20288;-62
2023/09/30 07:35:00;;;;;;;4.47;2.40;;;;;;;17.77;72.08;99934.19;5031865;28;20390;-64
2023/09/30 07:37:37;;;;;;;6.90;2.27;;;;;;;17.66;73.25;99932.06;5018158;28;20394;-61
2023/09/30 07:40:15;;;;;;;8.83;3.90;;;;;;;17.53;73.91;99931.00;5021417;28;20287;-62
2023/09/30 07:42:47;;;;;;;10.80;5.17;;;;;;;17.35;73.59;99922.22;5032109;28;20792;-63
2023/09/30 07:45:20;;;;;;;10.60;3.07;;;;;;;17.10;73.53;99901.44;5021676;28;20286;-63
2023/09/30 07:47:51;;;;;;;9.97;4.23;;;;;;;17.18;73.96;99936.25;5031848;28;20334;-61
2023/09/30 07:50:21;;;;;;;10.47;2.90;;;;;;;17.08;75.21;99935.00;5002249;28;20287;-60
2023/09/30 07:52:52;;;;;;;6.73;3.77;;;;;;;16.90;76.01;99935.84;5013579;28;20280;-64
2023/09/30 07:55:22;;;;;;;4.33;2.23;;;;;;;16.78;78.70;99948.72;5013053;28;20303;-63
2023/09/30 07:57:56;;;;;;;7.37;2.90;;;;;;;16.56;81.12;99947.97;5031968;28;21238;-62
2023/09/30 08:00:27;;;;;;;7.00;2.80;;;;;;;16.34;83.60;99948.94;5019900;28;20648;-64
2023/09/30 08:03:00;;;;;;;5.80;2.70;;;;;;;16.12;85.64;99938.50;5031271;28;20633;-63
2023/09/30 08:05:30;;;;;;;6.07;2.57;;;;;;;16.02;86.96;99952.16;5021550;28;20892;-63
2023/09/30 08:08:01;;;;;;;6.57;2.70;;;;;;;15.89;88.29;99951.84;5031248;28;20310;-64
2023/09/30 08:10:33;;;;;;;8.13;2.87;;;;;;;15.72;89.44;99947.28;5021101;28;20294;-62
2023/09/30 08:13:06;;;;;;;25.20;13.83;;;;;;;15.52;90.17;99948.09;5031332;28;20292;-63
2023/09/30 08:15:37;;;;;;;28.80;16.27;;;;;;;15.35;91.24;99951.44;5020804;28;20291;-62
2023/09/30 08:18:09;;;;;;;29.67;18.33;;;;;;;15.21;92.23;99943.25;5021460;28;20713;-65
2023/09/30 08:20:39;;;;;;;33.53;17.53;;;;;;;15.04;93.24;99947.41;5032211;28;20361;-60
2023/09/30 08:23:11;;;;;;;28.23;12.70;;;;;;;14.91;94.09;99943.53;5021005;28;20767;-63
2023/09/30 08:25:41;;;;;;;22.23;11.73;;;;;;;14.79;94.59;99947.50;5031108;28;20298;-64
2023/09/30 08:28:14;;;;;;;44.17;21.00;;;;;;;14.57;95.18;99930.84;5020649;28;20295;-60
2023/09/30 08:30:46;;;;;;;29.27;15.13;;;;;;;14.53;96.30;99945.88;5031827;28;21188;-63
2023/09/30 08:33:16;;;;;;;23.37;9.70;;;;;;;14.43;96.94;99957.63;5021357;28;20334;-64
2023/09/30 08:35:47;;;;;;;21.00;7.77;;;;;;;14.34;97.43;99955.31;5031717;28;20376;-60
2023/09/30 08:38:22;;;;;;;7.47;3.10;;;;;;;14.29;97.92;99959.91;5020998;28;20406;-63
2023/09/30 08:40:55;;;;;;;11.00;3.77;;;;;;;14.21;98.01;99963.66;5030697;28;20307;-65
2023/09/30 08:43:30;;;;;;;11.90;3.47;;;;;;;14.13;98.13;99963.09;5020867;28;20898;-61
2023/09/30 08:46:06;;;;;;;8.30;3.33;;;;;;;14.09;98.41;99964.09;5031101;28;20290;-63
2023/09/30 08:48:37;;;;;;;10.77;3.70;;;;;;;14.02;98.63;99965.22;5000680;28;20311;-61
2023/09/30 08:51:07;;;;;;;7.10;3.00;;;;;;;13.97;98.72;99969.78;5014204;28;20386;-64
2023/09/30 08:53:38;;;;;;;7.30;2.20;;;;;;;13.90;98.89;99961.25;5011705;28;21053;-61
2023/09/30 08:56:12;;;;;;;8.60;3.00;;;;;;;13.81;99.12;99978.19;5000317;28;20306;-64
2023/09/30 08:58:44;;;;;;;9.37;3.67;;;;;;;13.77;99.45;99971.31;5010726;28;20303;-63
2023/09/30 09:01:16;;;;;;;14.20;4.27;;;;;;;13.70;99.46;99974.22;5000703;28;20308;-64
2023/09/30 09:03:52;;;;;;;8.37;3.50;;;;;;;13.66;99.97;99970.84;5011340;28;20350;-64
2023/09/30 09:06:26;;;;;;;7.53;3.53;;;;;;;13.61;100.00;99970.13;4997416;28;20286;-63
2023/09/30 09:09:16;;;;;;;12.30;3.93;;;;;;;13.46;100.00;99974.13;5011492;28;21090;-61
2023/09/30 09:11:50;;;;;;;12.27;4.50;;;;;;;13.10;100.00;99915.78;5020185;28;20291;-60
2023/09/30 09:14:40;;;;;;;11.83;4.70;;;;;;;13.32;100.00;99964.06;5020294;28;20945;-60
2023/09/30 09:17:17;;;;;;;12.37;4.70;;;;;;;13.29;100.00;99969.44;5020239;28;20294;-61
2023/09/30 09:20:00;;;;;;;;;;;;;;;13.23;100.00;99964.34;5031023;28;20398;-64
2023/09/30 09:22:40;;;;;;;13.87;9.40;;;;;;;13.11;100.00;99964.75;5020230;28;19928;-64
2023/09/30 09:25:36;;;;;;;21.57;13.77;;;;;;;13.03;100.00;99966.72;5019462;28;20291;-62
2023/09/30 09:28:07;;;;;;;29.60;21.77;;;;;;;12.94;100.00;99968.72;5026190;28;20749;-64
2023/09/30 09:30:41;;;;;;;16.73;11.77;;;;;;;12.87;100.00;99969.81;5029088;28;20287;-63
2023/09/30 09:33:14;;;;;;;17.35;9.20;;;;;;;12.81;100.00;99972.66;5017952;28;20373;-63
2023/09/30 09:35:50;;;;;;;11.97;5.70;;;;;;;12.73;100.00;99975.50;5029046;28;20064;-63
2023/09/30 09:38:29;;;;;;;16.60;5.75;;;;;;;12.68;100.00;99981.75;5018055;28;20287;-63
2023/09/30 09:41:01;;;;;;;14.10;4.45;;;;;;;12.60;100.00;99989.00;5029632;28;20049;-63
2023/09/30 09:43:35;;;;;;;13.20;4.50;;;;;;;12.52;100.00;99981.38;4999684;28;20424;-61
2023/09/30 09:49:56;;;;;;;11.02;4.10;;;;;;;12.33;100.00;99999.38;4850927;29;21498;-62
2023/09/30 09:52:29;;;;;;;13.82;4.18;;;;;;;12.19;100.00;99983.19;4857222;29;20522;-62
2023/09/30 09:55:01;;;;;;;16.90;3.92;;;;;;;12.22;100.00;100010.13;4872141;29;20071;-63
2023/09/30 09:57:34;;;;;;;17.63;6.05;;;;;;;11.90;100.00;99961.25;4863076;29;20056;-63
2023/09/30 10:00:13;;;;;;;13.15;5.38;;;;;;;12.12;100.00;99997.34;4872687;29;20048;-65
2023/09/30 10:02:49;;;;;;;12.32;5.13;;;;;;;11.98;100.00;99980.25;4872641;29;20162;-64
2023/09/30 10:05:24;;;;;;;16.70;7.38;;;;;;;12.07;100.00;100011.41;4864006;29;20177;-64
2023/09/30 10:07:59;;;;;;;13.10;6.65;;;;;;;11.77;100.00;99957.19;4872105;29;20740;-61
2023/09/30 10:10:32;;;;;;;13.73;8.23;;;;;;;12.02;100.00;99992.34;4863221;29;20055;-63
2023/09/30 10:13:04;;;;;;;22.75;12.73;;;;;;;11.93;100.00;99986.47;4872464;29;20628;-61
2023/09/30 10:15:43;;;;;;;18.15;12.02;;;;;;;11.94;100.00;99989.06;4855580;29;20948;-64
2023/09/30 10:18:15;;;;;;;21.95;9.23;;;;;;;11.95;100.00;99990.78;4862675;29;20052;-61
2023/09/30 10:20:52;;;;;;;7.18;3.28;;;;;;;11.97;100.00;99986.38;4872137;29;20493;-62
2023/09/30 10:23:32;;;;;;;8.05;3.00;;;;;;;11.92;100.00;99998.72;4862795;29;20073;-61
2023/09/30 10:26:20;;;;;;;12.10;3.75;;;;;;;11.94;100.00;100015.25;4919822;28;20050;-64
2023/09/30 10:28:54;;;;;;;7.32;3.03;;;;;;;11.95;100.00;100016.09;5028582;28;20062;-62
2023/09/30 10:31:30;;;;;;;8.13;2.80;;;;;;;11.64;100.00;99970.59;5018987;28;20493;-65
2023/09/30 10:34:20;;;;;;;7.80;3.47;;;;;;;11.93;100.00;100023.13;5028826;28;21013;-62
2023/09/30 10:36:53;;;;;;;5.93;2.80;;;;;;;11.92;100.00;100026.66;5026288;28;20070;-64
2023/09/30 10:39:56;;;;;;;7.53;2.70;;;;;;;11.93;100.00;100033.59;5018342;28;20049;-61
2023/09/30 10:42:49;;;;;;;7.32;2.65;;;;;;;11.92;100.00;100043.22;5018433;28;20054;-62
2023/09/30 10:45:49;;;;;;;12.15;2.90;;;;;;;11.95;100.00;100043.16;5018220;28;20391;-62
2023/09/30 10:48:41;;;;;;;8.70;2.50;;;;;;;11.59;100.00;99969.88;5011192;28;20045;-65
2023/09/30 10:51:18;;;;;;;10.38;3.33;;;;;;;12.07;100.00;100042.84;5016447;28;20726;-62
2023/09/30 10:53:56;;;;;;;10.45;3.85;;;;;;;12.12;100.00;100031.38;5028578;28;20494;-66
2023/09/30 10:56:35;;;;;;;13.05;4.38;;;;;;;12.27;100.00;100046.69;5018334;28;20570;-64
2023/09/30 10:59:07;;;;;;;10.77;4.70;;;;;;;12.35;100.00;100052.56;5028781;28;20053;-63
2023/09/30 11:01:38;;;;;;;10.63;3.75;;;;;;;12.32;100.00;100052.66;5015428;28;20053;-60
2023/09/30 11:04:11;;;;;;;18.35;11.10;;;;;;;12.01;100.00;100022.06;5017939;28;20056;-61
2023/09/30 11:06:43;;;;;;;9.48;4.97;;;;;;;11.98;100.00;100043.09;5027941;28;20090;-63
2023/09/30 11:09:21;;;;;;;16.38;11.73;;;;;;;11.84;100.00;100024.22;5016805;28;20691;-64
2023/09/30 11:11:54;;;;;;;18.38;14.77;;;;;;;11.86;100.00;100032.91;5028044;28;20059;-62
2023/09/30 11:14:27;;;;;;;12.38;7.80;;;;;;;11.88;100.00;100044.19;5018164;28;20052;-62
2023/09/30 11:17:01;;;;;;;6.97;3.15;;;;;;;11.75;100.00;100024.44;5027014;28;20059;-60
2023/09/30 11:19:49;;;;;;;10.07;4.75;;;;;;;11.85;100.00;100042.47;5000092;28;20063;-63
2023/09/30 11:22:22;;;;;;;12.90;3.08;;;;;;;11.75;100.00;100024.44;5017254;28;20571;-62
2023/09/30 11:24:56;;;;;;;6.85;2.78;;;;;;;11.83;100.00;100038.19;5026910;28;20601;-62
2023/09/30 11:27:28;;;;;;;9.48;2.83;;;;;;;11.85;100.00;100037.25;5017283;28;20057;-64
2023/09/30 11:30:09;;;;;;;9.27;2.75;;;;;;;11.38;100.00;99957.31;5027785;28;20053;-63
2023/09/30 11:32:40;;;;;;;13.18;3.22;;;;;;;11.29;100.00;99947.94;5018455;28;20041;-61
2023/09/30 11:35:24;;;;;;;9.45;3.22;;;;;;;11.85;100.00;100044.25;5017878;28;20060;-64
2023/09/30 11:37:57;;;;;;;11.77;3.13;;;;;;;11.78;100.00;100035.72;5027992;28;20059;-61
2023/09/30 11:40:33;;;;;;;6.88;2.50;;;;;;;11.86;100.00;100043.38;5017434;28;20565;-62
2023/09/30 11:43:12;;;;;;;7.05;3.55;;;;;;;11.58;100.00;99996.94;5027624;28;20048;-64
2023/09/30 11:45:43;;;;;;;14.00;3.60;;;;;;;11.81;100.00;100032.16;5011167;28;20467;-62
2023/09/30 11:48:21;;;;;;;10.02;3.80;;;;;;;11.51;100.00;99969.22;5016409;28;20072;-60
2023/09/30 11:50:55;;;;;;;9.25;3.67;;;;;;;11.82;100.00;100021.63;5027953;28;20049;-61
2023/09/30 11:53:27;;;;;;;10.50;3.80;;;;;;;11.83;100.00;100015.50;5017474;28;20049;-62
2023/09/30 11:56:02;;;;;;;9.40;4.10;;;;;;;11.90;100.00;100018.84;5027848;28;20044;-63